createdAt,value
2023-03-16T00:00:53.921Z,8.18
2023-03-16T00:03:55.535Z,9.70
2023-03-16T00:06:58.472Z,8.73
2023-03-16T00:10:00.307Z,8.85
2023-03-16T00:13:02.835Z,8.82
2023-03-16T00:16:04.681Z,8.95
2023-03-16T00:19:06.427Z,9.60
2023-03-16T00:22:08.124Z,9.47
2023-03-16T00:25:11.860Z,9.05
2023-03-16T00:28:14.064Z,13.55
2023-03-16T00:31:15.823Z,10.15
2023-03-16T00:34:17.460Z,10.00
2023-03-16T00:37:20.823Z,11.93
2023-03-16T00:40:22.556Z,11.05
2023-03-16T00:43:27.283Z,9.82
2023-03-16T00:46:28.932Z,10.60
2023-03-16T00:49:34.827Z,9.38
2023-03-16T00:52:36.449Z,12.17
2023-03-16T00:55:38.251Z,10.63
2023-03-16T00:58:43.346Z,7.90
2023-03-16T01:01:46.821Z,9.68
2023-03-16T01:04:48.414Z,8.43
2023-03-16T01:07:50.099Z,8.83
2023-03-16T01:10:51.715Z,6.47
2023-03-16T01:13:54.597Z,8.45
2023-03-16T01:16:56.836Z,8.30
2023-03-16T01:19:58.434Z,8.38
2023-03-16T01:23:00.093Z,10.23
2023-03-16T01:26:02.264Z,8.05
2023-03-16T01:29:04.064Z,7.90
2023-03-16T01:32:07.296Z,9.30
2023-03-16T01:35:09.403Z,9.38
2023-03-16T01:38:11.002Z,12.70
2023-03-16T01:41:13.876Z,10.98
2023-03-16T01:44:22.555Z,9.93
2023-03-16T01:47:24.196Z,9.13
2023-03-16T01:50:27.772Z,10.73
2023-03-16T01:53:29.505Z,9.00
2023-03-16T01:56:43.234Z,8.45
2023-03-16T02:00:21.150Z,9.10
2023-03-16T02:03:22.870Z,9.77
2023-03-16T02:06:24.714Z,11.73
2023-03-16T02:09:27.654Z,8.20
2023-03-16T02:12:30.147Z,8.65
2023-03-16T02:15:32.478Z,6.10
2023-03-16T02:18:34.517Z,10.20
2023-03-16T02:21:47.440Z,7.85
2023-03-16T02:24:49.096Z,11.90
2023-03-16T02:28:05.782Z,9.07
2023-03-16T02:31:07.653Z,11.90
2023-03-16T02:34:10.063Z,9.32
2023-03-16T02:37:12.199Z,12.10
2023-03-16T02:40:21.121Z,8.83
2023-03-16T02:43:28.679Z,9.52
2023-03-16T02:46:35.742Z,9.48
2023-03-16T02:49:44.087Z,8.73
2023-03-16T02:52:47.639Z,10.05
2023-03-16T02:55:49.253Z,12.50
2023-03-16T02:58:50.832Z,9.20
2023-03-16T03:01:52.580Z,11.18
2023-03-16T03:04:54.610Z,10.80
2023-03-16T03:07:56.819Z,11.40
2023-03-16T03:10:59.105Z,9.20
2023-03-16T03:14:00.740Z,10.57
2023-03-16T03:17:02.376Z,12.30
2023-03-16T03:20:13.655Z,12.77
2023-03-16T03:23:15.906Z,10.00
2023-03-16T03:26:18.027Z,14.30
2023-03-16T03:29:19.726Z,10.50
2023-03-16T03:32:21.900Z,13.50
2023-03-16T03:35:23.821Z,11.68
2023-03-16T03:38:26.398Z,11.05
2023-03-16T03:41:27.976Z,11.53
2023-03-16T03:44:29.663Z,11.25
2023-03-16T03:47:31.520Z,12.50
2023-03-16T03:50:33.173Z,10.80
2023-03-16T03:53:34.881Z,12.13
2023-03-16T03:56:36.531Z,11.47
2023-03-16T03:59:43.563Z,10.88
2023-03-16T04:02:45.260Z,12.70
2023-03-16T04:05:47.129Z,11.95
2023-03-16T04:08:49.449Z,12.07
2023-03-16T04:11:51.254Z,11.37
2023-03-16T04:14:52.904Z,12.35
2023-03-16T04:17:54.575Z,10.05
2023-03-16T04:20:56.248Z,9.50
2023-03-16T04:23:57.842Z,12.88
2023-03-16T04:26:59.616Z,12.87
2023-03-16T04:30:01.325Z,10.32
2023-03-16T04:33:03.067Z,10.55
2023-03-16T04:36:06.677Z,11.77
2023-03-16T04:39:08.986Z,11.57
2023-03-16T04:42:10.706Z,9.63
2023-03-16T04:45:14.073Z,11.68
2023-03-16T04:48:15.739Z,10.55
2023-03-16T04:51:17.377Z,10.32
2023-03-16T04:54:18.989Z,13.25
2023-03-16T04:57:20.669Z,10.73
2023-03-16T05:00:23.577Z,10.75
2023-03-16T05:03:25.766Z,14.05
2023-03-16T05:06:27.485Z,12.27
2023-03-16T05:09:29.140Z,12.25
2023-03-16T05:12:30.931Z,12.13
2023-03-16T05:15:33.408Z,11.68
2023-03-16T05:18:35.110Z,12.25
2023-03-16T05:21:38.769Z,13.82
2023-03-16T05:24:40.480Z,10.98
2023-03-16T05:27:44.112Z,11.33
2023-03-16T05:30:45.818Z,10.50
2023-03-16T05:33:48.233Z,9.52
2023-03-16T05:36:49.958Z,11.07
2023-03-16T05:39:51.585Z,13.20
2023-03-16T05:42:57.650Z,15.70
2023-03-16T05:45:59.314Z,12.10
2023-03-16T05:49:00.951Z,10.52
2023-03-16T05:52:02.670Z,10.63
2023-03-16T05:55:05.980Z,11.02
2023-03-16T05:58:07.554Z,11.87
2023-03-16T06:01:10.954Z,14.27
2023-03-16T06:04:12.747Z,10.35
2023-03-16T06:07:14.528Z,8.02
2023-03-16T06:10:16.924Z,12.48
2023-03-16T06:13:18.619Z,9.87
2023-03-16T06:16:20.253Z,12.38
2023-03-16T06:19:22.098Z,8.93
2023-03-16T06:22:25.039Z,12.30
2023-03-16T06:25:26.768Z,14.73
2023-03-16T06:28:28.560Z,9.40
2023-03-16T06:31:30.976Z,10.85
2023-03-16T06:34:32.729Z,13.02
2023-03-16T06:37:34.367Z,10.80
2023-03-16T06:40:36.092Z,11.20
2023-03-16T06:43:38.022Z,10.53
2023-03-16T06:46:39.661Z,8.77
2023-03-16T06:49:41.405Z,10.35
2023-03-16T06:52:43.124Z,8.80
2023-03-16T06:55:44.854Z,11.30
2023-03-16T06:58:46.472Z,10.03
2023-03-16T07:01:48.148Z,8.88
2023-03-16T07:04:50.534Z,11.75
2023-03-16T07:07:52.190Z,10.32
2023-03-16T07:10:54.725Z,11.88
2023-03-16T07:13:56.837Z,9.73
2023-03-16T07:16:58.551Z,9.88
2023-03-16T07:20:00.329Z,10.38
2023-03-16T07:23:02.093Z,10.80
2023-03-16T07:26:03.856Z,12.20
2023-03-16T07:29:06.483Z,10.00
2023-03-16T07:32:08.523Z,12.07
2023-03-16T07:35:11.785Z,11.02
2023-03-16T07:38:13.688Z,11.75
2023-03-16T07:41:15.365Z,11.15
2023-03-16T07:44:16.981Z,11.33
2023-03-16T07:47:19.796Z,11.02
2023-03-16T07:50:22.370Z,10.27
2023-03-16T07:53:24.199Z,11.15
2023-03-16T07:56:27.230Z,11.25
2023-03-16T07:59:31.439Z,9.97
2023-03-16T08:02:33.885Z,9.95
2023-03-16T08:05:36.657Z,10.95
2023-03-16T08:08:38.399Z,10.18
2023-03-16T08:11:41.606Z,12.15
2023-03-16T08:14:45.793Z,9.87
2023-03-16T08:17:47.922Z,11.07
2023-03-16T08:20:49.614Z,10.95
2023-03-16T08:23:52.022Z,12.25
2023-03-16T08:26:54.058Z,11.57
2023-03-16T08:29:55.962Z,10.73
2023-03-16T08:32:57.664Z,10.30
2023-03-16T08:35:59.350Z,11.30
2023-03-16T08:39:07.091Z,9.85
2023-03-16T08:42:10.601Z,10.90
2023-03-16T08:45:15.410Z,12.17
2023-03-16T08:48:18.976Z,10.40
2023-03-16T08:51:20.884Z,10.40
2023-03-16T08:54:22.955Z,10.77
2023-03-16T08:57:24.684Z,10.00
2023-03-16T09:00:26.570Z,11.43
2023-03-16T09:03:28.898Z,12.70
2023-03-16T09:06:31.747Z,10.25
2023-03-16T09:09:34.294Z,11.32
2023-03-16T09:12:38.126Z,11.38
2023-03-16T09:15:39.741Z,11.47
2023-03-16T09:18:44.524Z,10.48
2023-03-16T09:21:47.495Z,12.82
2023-03-16T09:24:49.939Z,12.27
2023-03-16T09:27:52.744Z,12.88
2023-03-16T09:30:56.129Z,11.37
2023-03-16T09:33:58.163Z,11.27
2023-03-16T09:37:00.516Z,10.80
2023-03-16T09:40:10.176Z,10.98
2023-03-16T09:43:28.773Z,11.07
2023-03-16T09:46:46.254Z,10.23
2023-03-16T09:49:50.205Z,10.00
2023-03-16T09:53:13.844Z,13.00
2023-03-16T09:56:40.615Z,8.10
2023-03-16T09:59:42.370Z,10.32
2023-03-16T10:02:56.178Z,9.73
2023-03-16T10:06:02.183Z,9.38
2023-03-16T10:09:25.054Z,9.52
2023-03-16T10:12:36.014Z,9.18
2023-03-16T10:15:39.598Z,7.93
2023-03-16T10:18:53.629Z,10.83
2023-03-16T10:21:58.409Z,7.20
2023-03-16T10:25:21.649Z,10.45
2023-03-16T10:28:28.630Z,8.63
2023-03-16T10:31:30.529Z,9.13
2023-03-16T10:34:32.336Z,10.20
2023-03-16T10:37:34.486Z,7.93
2023-03-16T10:40:39.283Z,9.05
2023-03-16T10:43:42.132Z,8.43
2023-03-16T10:46:48.469Z,8.70
2023-03-16T10:49:53.559Z,8.20
2023-03-16T10:52:57.627Z,9.25
2023-03-16T10:56:02.352Z,9.38
2023-03-16T10:59:15.326Z,7.82
2023-03-16T11:02:23.773Z,7.35
2023-03-16T11:05:32.304Z,7.53
2023-03-16T11:08:37.477Z,9.07
2023-03-16T11:11:41.896Z,7.57
2023-03-16T11:14:45.535Z,7.93
2023-03-16T11:17:53.588Z,6.82
2023-03-16T11:20:56.161Z,8.47
2023-03-16T11:23:59.835Z,8.82
2023-03-16T11:27:04.774Z,7.10
2023-03-16T11:30:39.251Z,7.45
2023-03-16T11:33:41.377Z,6.72
2023-03-16T11:36:56.222Z,6.00
2023-03-16T11:40:20.720Z,7.28
2023-03-16T11:44:04.025Z,7.53
2023-03-16T11:47:29.339Z,6.28
2023-03-16T11:51:06.949Z,6.05
2023-03-16T11:54:48.698Z,5.63
2023-03-16T11:58:20.842Z,6.22
2023-03-16T12:01:43.030Z,6.07
2023-03-16T12:05:14.624Z,6.75
2023-03-16T12:08:47.750Z,6.25
2023-03-16T12:12:09.863Z,9.60
2023-03-16T12:15:44.995Z,6.50
2023-03-16T12:18:53.178Z,6.82
2023-03-16T12:22:15.320Z,5.40
2023-03-16T12:25:24.890Z,5.32
2023-03-16T12:28:29.262Z,5.77
2023-03-16T12:31:55.883Z,5.72
2023-03-16T12:35:10.880Z,5.97
2023-03-16T12:38:40.844Z,6.15
2023-03-16T12:41:45.504Z,5.05
2023-03-16T12:44:57.292Z,5.47
2023-03-16T12:48:15.214Z,7.88
2023-03-16T12:51:18.385Z,6.63
2023-03-16T12:54:25.440Z,5.13
2023-03-16T12:57:27.329Z,6.18
2023-03-16T13:00:38.331Z,9.70
2023-03-16T13:03:42.065Z,5.95
2023-03-16T13:06:48.376Z,7.80
2023-03-16T13:10:14.769Z,5.50
2023-03-16T13:13:18.294Z,5.85
2023-03-16T13:16:28.443Z,8.47
2023-03-16T13:19:32.186Z,5.93
2023-03-16T13:22:46.624Z,5.00
2023-03-16T13:26:12.685Z,6.07
2023-03-16T13:29:25.813Z,4.63
2023-03-16T13:32:32.012Z,5.27
2023-03-16T13:35:35.678Z,5.63
2023-03-16T13:38:38.908Z,5.97
2023-03-16T13:41:43.192Z,4.60
2023-03-16T13:44:45.452Z,6.03
2023-03-16T13:47:48.764Z,5.20
2023-03-16T13:50:57.826Z,5.82
2023-03-16T13:54:05.249Z,5.78
2023-03-16T13:57:14.865Z,6.53
2023-03-16T14:00:21.904Z,4.15
2023-03-16T14:03:36.250Z,6.50
2023-03-16T14:06:39.680Z,5.30
2023-03-16T14:09:41.806Z,6.18
2023-03-16T14:13:08.422Z,8.88
2023-03-16T14:16:10.094Z,4.95
2023-03-16T14:19:20.169Z,7.33
2023-03-16T14:22:34.083Z,5.47
2023-03-16T14:25:36.278Z,5.28
2023-03-16T14:28:38.687Z,6.70
2023-03-16T14:31:41.055Z,4.60
2023-03-16T14:34:44.611Z,4.97
2023-03-16T14:37:46.665Z,5.10
2023-03-16T14:40:57.564Z,5.47
2023-03-16T14:44:01.307Z,5.10
2023-03-16T14:47:04.879Z,4.72
2023-03-16T14:50:10.125Z,4.57
2023-03-16T14:53:11.861Z,5.53
2023-03-16T14:56:14.563Z,5.35
2023-03-16T14:59:16.353Z,5.45
2023-03-16T15:02:27.091Z,5.50
2023-03-16T15:05:36.634Z,5.13
2023-03-16T15:08:44.428Z,5.00
2023-03-16T15:11:46.557Z,5.43
2023-03-16T15:15:06.847Z,5.15
2023-03-16T15:18:09.045Z,4.85
2023-03-16T15:21:20.634Z,4.83
2023-03-16T15:24:22.504Z,5.30
2023-03-16T15:27:32.261Z,5.65
2023-03-16T15:30:34.160Z,5.50
2023-03-16T15:33:35.822Z,4.25
2023-03-16T15:36:37.684Z,5.43
2023-03-16T15:39:40.163Z,4.72
2023-03-16T15:42:42.008Z,6.95
2023-03-16T15:45:44.654Z,5.40
2023-03-16T15:48:46.249Z,4.22
2023-03-16T15:51:49.311Z,7.97
2023-03-16T15:54:51.353Z,5.97
2023-03-16T15:58:02.426Z,6.32
2023-03-16T16:01:05.856Z,5.03
2023-03-16T16:04:15.489Z,5.63
2023-03-16T16:07:17.278Z,6.67
2023-03-16T16:10:19.134Z,6.07
2023-03-16T16:13:37.384Z,7.43
2023-03-16T16:16:46.066Z,9.00
2023-03-16T16:19:48.803Z,7.70
2023-03-16T16:22:52.063Z,7.00
2023-03-16T16:26:01.162Z,7.32
2023-03-16T16:29:13.553Z,7.43
2023-03-16T16:32:24.788Z,7.95
2023-03-16T16:35:28.364Z,6.15
2023-03-16T16:38:33.605Z,7.90
2023-03-16T16:41:37.252Z,7.28
2023-03-16T16:44:39.026Z,6.78
2023-03-16T16:47:40.693Z,9.02
2023-03-16T16:50:42.435Z,7.95
2023-03-16T16:53:45.484Z,9.03
2023-03-16T16:56:48.915Z,8.02
2023-03-16T16:59:51.011Z,9.10
2023-03-16T17:02:57.149Z,9.55
2023-03-16T17:05:59.029Z,10.07
2023-03-16T17:09:01.093Z,9.83
2023-03-16T17:12:02.863Z,9.98
2023-03-16T17:15:19.220Z,10.48
2023-03-16T17:18:22.090Z,10.07
2023-03-16T17:21:25.953Z,10.25
2023-03-16T17:24:28.782Z,11.87
2023-03-16T17:27:33.025Z,10.52
2023-03-16T17:30:34.639Z,12.48
2023-03-16T17:33:36.365Z,9.75
2023-03-16T17:36:37.959Z,13.13
2023-03-16T17:39:39.723Z,11.97
2023-03-16T17:42:41.382Z,12.00
2023-03-16T17:45:45.129Z,12.45
2023-03-16T17:48:47.761Z,11.68
2023-03-16T17:51:50.448Z,11.05
2023-03-16T17:54:53.640Z,10.20
2023-03-16T17:57:55.913Z,10.93
2023-03-16T18:00:58.622Z,13.00
2023-03-16T18:04:03.487Z,9.43
2023-03-16T18:07:05.431Z,9.70
2023-03-16T18:10:07.690Z,8.37
2023-03-16T18:13:28.159Z,8.18
2023-03-16T18:16:31.299Z,8.02
2023-03-16T18:19:33.028Z,9.65
2023-03-16T18:22:35.126Z,12.02
2023-03-16T18:25:41.051Z,9.50
2023-03-16T18:28:43.860Z,9.30
2023-03-16T18:31:46.737Z,10.63
2023-03-16T18:34:49.683Z,10.88
2023-03-16T18:37:53.438Z,11.07
2023-03-16T18:40:55.134Z,9.97
2023-03-16T18:43:59.774Z,11.48
2023-03-16T18:47:03.116Z,10.63
2023-03-16T18:50:05.454Z,9.80
2023-03-16T18:53:15.693Z,11.80
2023-03-16T18:56:19.984Z,10.83
2023-03-16T18:59:21.639Z,10.77
2023-03-16T19:02:38.863Z,16.33
2023-03-16T19:05:40.813Z,22.85
2023-03-16T19:08:42.430Z,21.13
2023-03-16T19:11:44.967Z,15.50
2023-03-16T19:14:47.530Z,13.18
2023-03-16T19:17:50.271Z,13.60
2023-03-16T19:20:53.795Z,12.38
2023-03-16T19:24:01.598Z,14.25
2023-03-16T19:27:03.297Z,11.93
2023-03-16T19:30:05.634Z,13.77
2023-03-16T19:33:29.109Z,13.27
2023-03-16T19:36:33.879Z,12.23
2023-03-16T19:39:35.841Z,12.55
2023-03-16T19:42:40.114Z,10.60
2023-03-16T19:45:42.966Z,10.10
2023-03-16T19:48:44.961Z,10.68
2023-03-16T19:51:47.959Z,13.60
2023-03-16T19:54:49.641Z,10.60
2023-03-16T19:57:59.112Z,12.83
2023-03-16T20:01:01.226Z,10.43
2023-03-16T20:04:04.508Z,9.70
2023-03-16T20:07:12.738Z,13.05
2023-03-16T20:10:33.256Z,13.80
2023-03-16T20:13:36.270Z,10.97
2023-03-16T20:16:37.928Z,11.57
2023-03-16T20:19:39.611Z,11.73
2023-03-16T20:22:41.651Z,10.15
2023-03-16T20:25:43.405Z,10.63
2023-03-16T20:28:46.707Z,10.53
2023-03-16T20:31:48.349Z,9.48
2023-03-16T20:34:51.484Z,9.43
2023-03-16T20:37:53.249Z,11.38
2023-03-16T20:40:54.908Z,9.63
2023-03-16T20:43:59.498Z,10.57
2023-03-16T20:47:01.307Z,9.95
2023-03-16T20:50:04.591Z,11.93
2023-03-16T20:53:06.515Z,10.90
2023-03-16T20:56:15.642Z,9.45
2023-03-16T20:59:20.500Z,12.73
2023-03-16T21:02:33.774Z,12.40
2023-03-16T21:05:35.728Z,13.15
2023-03-16T21:08:37.418Z,9.45
2023-03-16T21:11:39.392Z,10.88
2023-03-16T21:14:41.453Z,10.67
2023-03-16T21:17:43.814Z,9.68
2023-03-16T21:20:47.241Z,10.32
2023-03-16T21:23:49.503Z,9.40
2023-03-16T21:26:51.127Z,9.60
2023-03-16T21:29:54.980Z,10.10
2023-03-16T21:32:57.270Z,11.35
2023-03-16T21:36:01.287Z,9.98
2023-03-16T21:39:17.556Z,11.40
2023-03-16T21:42:19.825Z,10.68
2023-03-16T21:45:21.522Z,10.33
2023-03-16T21:48:36.352Z,9.38
2023-03-16T21:51:38.116Z,11.40
2023-03-16T21:54:39.771Z,8.00
2023-03-16T21:57:41.450Z,8.07
2023-03-16T22:00:43.900Z,9.07
2023-03-16T22:03:51.006Z,12.30
2023-03-16T22:06:53.082Z,8.27
2023-03-16T22:09:54.718Z,11.95
2023-03-16T22:12:57.123Z,9.73
2023-03-16T22:15:58.828Z,10.33
2023-03-16T22:19:00.546Z,10.25
2023-03-16T22:22:02.272Z,9.45
2023-03-16T22:25:17.273Z,8.65
2023-03-16T22:28:19.360Z,9.00
2023-03-16T22:31:32.017Z,8.50
2023-03-16T22:34:56.103Z,8.40
2023-03-16T22:37:59.878Z,11.23
2023-03-16T22:41:01.904Z,7.90
2023-03-16T22:44:04.145Z,7.97
2023-03-16T22:47:06.964Z,8.40
2023-03-16T22:50:14.477Z,8.82
2023-03-16T22:53:40.991Z,9.55
2023-03-16T22:56:46.012Z,8.68
2023-03-16T22:59:48.575Z,8.68
2023-03-16T23:02:50.234Z,9.63
2023-03-16T23:05:52.615Z,9.80
2023-03-16T23:08:54.657Z,8.75
2023-03-16T23:11:57.157Z,9.05
2023-03-16T23:14:58.748Z,7.65
2023-03-16T23:18:00.463Z,7.40
2023-03-16T23:21:02.598Z,7.60
2023-03-16T23:24:04.696Z,7.70
2023-03-16T23:27:23.992Z,9.27
2023-03-16T23:30:25.977Z,9.25
2023-03-16T23:33:27.607Z,7.63
2023-03-16T23:36:30.043Z,9.23
2023-03-16T23:39:31.765Z,8.35
2023-03-16T23:42:33.489Z,9.05
2023-03-16T23:45:41.909Z,8.82
2023-03-16T23:48:45.950Z,9.03
2023-03-16T23:51:48.234Z,7.80
2023-03-16T23:54:50.203Z,8.32
2023-03-16T23:57:51.893Z,8.35
